Time;durP1;ratioP1;P1;durP2;ratioP2;P2;SDS_P1;SDS_P2;PMS_P1;PMS_P2;Temp;Humidity;BMP_temperature;BMP_pressure;BME280_temperature;BME280_humidity;BME280_pressure;Samples;Min_cycle;Max_cycle;Signal;HPM_P1;HPM_P2
2022/06/23 00:00:29;;;;;;;4.47;2.67;;;;;;;17.38;69.83;99414.52;1749182;80;20924;-89
2022/06/23 00:02:59;;;;;;;4.17;1.85;;;;;;;17.36;69.63;99419.44;1755868;81;21439;-88
2022/06/23 00:05:28;;;;;;;3.33;2.23;;;;;;;17.32;69.64;99415.83;1753634;81;21003;-86
2022/06/23 00:07:57;;;;;;;4.97;2.10;;;;;;;17.30;69.41;99412.66;1753572;80;21674;-88
2022/06/23 00:10:33;;;;;;;3.27;2.07;;;;;;;17.27;69.47;99431.64;1777033;79;21735;-88
2022/06/23 00:13:00;;;;;;;4.47;2.50;;;;;;;17.25;69.42;99425.02;1745878;80;21752;-87
2022/06/23 00:15:31;;;;;;;2.43;1.80;;;;;;;17.20;69.49;99420.59;1752120;80;21804;-88
2022/06/23 00:18:04;;;;;;;3.65;2.10;;;;;;;17.15;69.72;99420.80;1751933;80;28982;-88
2022/06/23 00:20:52;;;;;;;2.63;2.00;;;;;;;17.18;69.73;99424.75;1751019;80;20995;-88
2022/06/23 00:23:30;;;;;;;2.63;1.93;;;;;;;17.17;69.79;99439.34;1752840;80;21999;-88
2022/06/23 00:26:19;;;;;;;2.70;2.00;;;;;;;17.15;69.96;99428.89;1749666;81;21646;-88
2022/06/23 00:28:49;;;;;;;3.10;1.83;;;;;;;17.15;70.04;99433.50;1755063;81;21736;-88
2022/06/23 00:31:36;;;;;;;3.33;2.00;;;;;;;17.13;70.09;99433.03;1754402;81;21740;-90
2022/06/23 00:34:22;;;;;;;3.70;2.30;;;;;;;17.12;70.31;99434.95;1752662;81;21715;-87
2022/06/23 00:37:02;;;;;;;4.17;2.40;;;;;;;17.13;70.33;99445.17;1755057;81;22177;-86
2022/06/23 00:39:37;;;;;;;5.77;2.20;;;;;;;17.10;70.31;99428.51;1748051;81;21082;-85
2022/06/23 00:42:21;;;;;;;4.47;2.17;;;;;;;17.09;70.56;99430.98;1754199;81;21677;-88
2022/06/23 00:45:14;;;;;;;3.03;2.20;;;;;;;17.12;70.77;99437.64;1755599;81;21694;-88
2022/06/23 00:47:59;;;;;;;4.87;2.20;;;;;;;17.12;70.77;99437.64;1725079;83;21007;-80
2022/06/23 00:50:34;;;;;;;3.70;2.20;;;;;;;17.13;70.74;99427.07;1725456;83;21695;-89
2022/06/23 00:53:18;;;;;;;3.43;2.20;;;;;;;17.11;70.62;99427.98;1744101;81;21808;-87
2022/06/23 00:56:39;;;;;;;4.03;2.07;;;;;;;17.13;70.79;99420.89;1755614;81;21666;-87
2022/06/23 00:59:33;;;;;;;4.20;2.00;;;;;;;17.11;70.65;99411.23;1755557;81;21709;-88
2022/06/23 01:02:10;;;;;;;4.70;2.20;;;;;;;17.15;70.78;99420.80;1731937;81;21724;-90
2022/06/23 01:04:49;;;;;;;3.27;2.20;;;;;;;17.18;70.78;99418.02;1755570;81;22318;-90
2022/06/23 01:08:10;;;;;;;3.73;2.10;;;;;;;17.19;70.62;99386.64;1755429;81;21674;-88
2022/06/23 01:10:43;;;;;;;4.78;2.17;;;;;;;17.30;70.30;99403.21;1753297;80;21066;-87
2022/06/23 01:13:32;;;;;;;3.70;2.30;;;;;;;17.30;70.18;99404.56;1747738;80;21639;-88
2022/06/23 01:16:16;;;;;;;3.60;2.20;;;;;;;17.27;70.25;99398.47;1754894;80;21704;-86
2022/06/23 01:18:51;;;;;;;5.00;2.20;;;;;;;17.20;70.71;99384.72;1755306;81;21097;-88
2022/06/23 01:21:32;;;;;;;4.90;2.40;;;;;;;17.20;70.71;99384.72;1754250;81;21085;-89
2022/06/23 01:24:21;;;;;;;6.17;2.57;;;;;;;17.18;70.94;99399.13;1755055;80;21699;-87
2022/06/23 01:27:23;;;;;;;5.37;2.37;;;;;;;17.17;71.10;99390.78;1751986;81;21338;-89
2022/06/23 01:29:53;;;;;;;5.20;3.03;;;;;;;17.15;71.56;99407.31;1771612;80;21038;-90
2022/06/23 01:32:28;;;;;;;7.17;3.13;;;;;;;17.11;72.13;99403.12;1756244;81;21670;-86
2022/06/23 01:35:03;;;;;;;6.20;3.10;;;;;;;17.06;73.02;99400.61;1759384;80;21735;-88
2022/06/23 01:37:50;;;;;;;4.97;2.87;;;;;;;16.94;73.89;99404.58;1753792;81;21737;-83
2022/06/23 01:40:27;;;;;;;5.30;2.63;;;;;;;16.82;74.72;99405.30;1699510;81;21706;-82
2022/06/23 01:43:08;;;;;;;7.00;4.50;;;;;;;16.72;75.48;99404.86;1754306;80;21765;-85
2022/06/23 01:45:44;;;;;;;6.27;4.70;;;;;;;16.63;76.03;99398.16;1776106;79;21825;-89
2022/06/23 01:48:52;;;;;;;8.50;5.10;;;;;;;16.62;76.48;99408.16;1751978;80;21778;-88
2022/06/23 01:51:32;;;;;;;5.90;3.50;;;;;;;16.62;76.87;99416.24;1754282;80;22163;-89
2022/06/23 01:54:26;;;;;;;4.20;3.10;;;;;;;16.60;77.37;99418.46;1749797;80;21823;-88
2022/06/23 01:57:21;;;;;;;3.90;3.00;;;;;;;16.58;77.74;99418.55;1753273;80;22191;-85
2022/06/23 02:00:17;;;;;;;6.63;3.50;;;;;;;16.55;78.16;99421.89;1752493;80;21697;-80
2022/06/23 02:03:23;;;;;;;5.30;3.57;;;;;;;16.49;78.59;99422.65;1753347;80;21760;-85
2022/06/23 02:06:00;;;;;;;6.60;3.83;;;;;;;16.44;79.02;99424.72;1780040;79;21750;-81
2022/06/23 02:08:49;;;;;;;8.17;6.00;;;;;;;16.39;79.42;99435.92;1751301;80;21729;-83
2022/06/23 02:11:30;;;;;;;7.70;6.50;;;;;;;16.38;79.62;99433.53;1754520;80;22246;-86
2022/06/23 02:14:25;;;;;;;8.20;7.13;;;;;;;16.37;79.50;99433.31;1779174;79;21720;-83
2022/06/23 02:17:13;;;;;;;10.73;8.80;;;;;;;16.37;79.55;99434.66;1779959;80;21696;-83
2022/06/23 02:19:46;;;;;;;11.40;9.33;;;;;;;16.40;79.46;99431.32;1776846;79;21734;-83
2022/06/23 02:22:27;;;;;;;14.63;11.20;;;;;;;16.44;79.50;99431.46;1779717;80;21767;-86
2022/06/23 02:25:17;;;;;;;14.93;12.55;;;;;;;16.47;79.48;99428.13;1751088;80;21737;-89
2022/06/23 02:28:01;;;;;;;12.23;10.60;;;;;;;16.49;79.39;99437.47;1723748;83;21256;-86
2022/06/23 02:30:35;;;;;;;10.67;9.57;;;;;;;16.52;79.33;99431.44;1725129;81;21856;-89
2022/06/23 02:33:30;;;;;;;10.40;7.80;;;;;;;16.56;79.12;99435.06;1753034;80;21710;-81
2022/06/23 02:36:44;;;;;;;9.93;7.83;;;;;;;16.67;78.64;99440.08;1748566;80;21662;-85
2022/06/23 02:39:18;;;;;;;10.20;7.63;;;;;;;16.67;78.64;99440.08;1752035;80;21686;-85
2022/06/23 02:41:55;;;;;;;8.70;6.90;;;;;;;16.73;78.15;99440.14;1746109;80;21677;-83
2022/06/23 02:44:57;;;;;;;10.10;6.70;;;;;;;16.78;77.89;99436.73;1753206;80;21806;-83
2022/06/23 02:47:33;;;;;;;;;;;;;;;16.82;77.61;99440.36;1753696;80;21602;-87
2022/06/23 02:50:24;;;;;;;6.87;5.80;;;;;;;16.85;76.94;99437.58;1750504;80;20288;-85
2022/06/23 02:53:21;;;;;;;;;;;;;;;16.86;76.54;99443.98;1697291;81;21714;-84
2022/06/23 02:56:10;;;;;;;8.57;5.80;;;;;;;16.92;76.11;99449.98;1753948;81;21233;-86
2022/06/23 02:58:55;;;;;;;8.53;5.97;;;;;;;16.96;75.92;99445.52;1745830;81;21850;-85
2022/06/23 03:01:28;;;;;;;9.57;5.53;;;;;;;17.01;75.69;99458.01;1754043;81;21676;-86
2022/06/23 03:04:18;;;;;;;8.00;5.63;;;;;;;17.05;75.31;99444.91;1753899;81;21695;-87
2022/06/23 03:07:21;;;;;;;9.50;6.40;;;;;;;17.14;74.52;99445.39;1730109;81;22276;-85
2022/06/23 03:09:52;;;;;;;7.27;4.90;;;;;;;17.14;74.52;99445.39;1718460;83;21632;-85
2022/06/23 03:12:36;;;;;;;7.47;4.70;;;;;;;17.16;74.85;99446.66;1749944;80;27077;-84
2022/06/23 03:15:17;;;;;;;7.37;4.70;;;;;;;17.18;74.95;99443.64;1749685;80;21094;-82
2022/06/23 03:17:58;;;;;;;5.90;4.47;;;;;;;17.19;75.08;99441.17;1747252;80;21707;-87
2022/06/23 03:20:37;;;;;;;6.60;4.87;;;;;;;17.22;75.16;99441.86;1752504;80;21713;-86
2022/06/23 03:23:31;;;;;;;6.97;5.10;;;;;;;17.21;75.13;99443.78;1728447;80;21723;-85
2022/06/23 03:26:15;;;;;;;6.60;5.13;;;;;;;17.21;74.41;99442.42;1752837;80;21606;-88
2022/06/23 03:28:56;;;;;;;6.83;5.23;;;;;;;17.24;73.30;99449.05;1755598;81;21720;-87
2022/06/23 03:31:31;;;;;;;5.93;4.57;;;;;;;17.29;72.63;99449.66;1750426;81;22264;-85
2022/06/23 03:34:06;;;;;;;6.07;4.60;;;;;;;17.34;72.31;99443.27;1755265;81;21723;-86
2022/06/23 03:36:55;;;;;;;6.63;4.50;;;;;;;17.42;72.01;99434.89;1753035;81;22036;-83
2022/06/23 03:42:39;;;;;;;5.30;4.53;;;;;;;17.47;71.58;99438.72;1752181;80;21768;-82
2022/06/23 03:45:26;;;;;;;7.37;4.53;;;;;;;17.49;71.39;99450.78;1752862;81;21050;-83
2022/06/23 03:48:00;;;;;;;4.93;4.00;;;;;;;17.50;71.41;99453.70;1781702;80;21003;-84
2022/06/23 03:50:56;;;;;;;8.03;5.10;;;;;;;17.51;71.56;99453.95;1750398;81;21230;-91
2022/06/23 03:53:27;;;;;;;6.43;4.53;;;;;;;17.52;71.37;99457.43;1711587;81;21078;-84
2022/06/23 03:55:59;;;;;;;5.22;4.15;;;;;;;17.52;71.38;99462.27;1751882;81;21071;-85
2022/06/23 03:58:32;;;;;;;;;;;;;;;17.52;71.41;99469.02;1748234;82;21183;-88
2022/06/23 04:01:15;;;;;;;6.43;4.07;;;;;;;17.53;71.44;99481.39;1749076;79;20136;-88
2022/06/23 04:03:47;;;;;;;8.10;4.50;;;;;;;17.57;71.31;99482.87;1746508;80;21882;-83
2022/06/23 04:06:32;;;;;;;;;;;;;;;17.59;71.28;99485.47;1753816;80;20944;-85
2022/06/23 04:09:25;;;;;;;5.27;3.83;;;;;;;17.61;70.91;99484.38;1750765;80;20480;-86
2022/06/23 04:12:04;;;;;;;6.83;4.40;;;;;;;17.65;70.84;99485.28;1747983;80;21095;-89
2022/06/23 04:14:44;;;;;;;5.30;3.80;;;;;;;17.72;70.67;99484.98;1753842;80;21050;-88
2022/06/23 04:17:35;;;;;;;5.10;4.10;;;;;;;17.78;70.13;99478.85;1730099;80;21364;-84
2022/06/23 04:20:19;;;;;;;6.00;4.17;;;;;;;17.82;69.77;99491.92;1751630;80;21136;-87
2022/06/23 04:23:02;;;;;;;6.20;4.70;;;;;;;17.86;69.75;99497.45;1690482;80;21451;-81
2022/06/23 04:25:53;;;;;;;6.53;4.53;;;;;;;17.85;69.56;99492.61;1755634;80;21322;-86
2022/06/23 04:28:34;;;;;;;8.53;4.50;;;;;;;17.87;69.32;99486.33;1753509;80;21027;-81
2022/06/23 04:31:05;;;;;;;7.47;3.98;;;;;;;17.87;69.30;99487.67;1753141;80;21258;-82
2022/06/23 04:33:38;;;;;;;6.70;4.53;;;;;;;17.88;69.57;99510.86;1780647;79;21147;-86
2022/06/23 04:36:06;;;;;;;5.93;4.30;;;;;;;17.89;69.73;99502.97;1752541;79;20961;-87
2022/06/23 04:38:44;;;;;;;6.13;3.80;;;;;;;17.92;69.79;99499.61;1776986;79;21051;-82
2022/06/23 04:41:21;;;;;;;12.37;4.63;;;;;;;17.96;69.51;99495.12;1781027;79;21101;-87
2022/06/23 04:43:59;;;;;;;5.97;4.07;;;;;;;18.05;69.37;99488.30;1778570;79;21160;-83
2022/06/23 04:46:33;;;;;;;5.73;4.00;;;;;;;18.12;68.78;99496.64;1776393;79;21053;-84
2022/06/23 04:49:17;;;;;;;5.60;4.10;;;;;;;18.16;68.42;99500.25;1752297;80;21027;-86
2022/06/23 04:52:04;;;;;;;5.43;3.90;;;;;;;18.23;68.43;99509.98;1755030;79;21044;-86
2022/06/23 04:55:08;;;;;;;6.07;3.93;;;;;;;18.34;68.34;99497.39;1781904;79;20984;-81
2022/06/23 04:58:12;;;;;;;6.43;3.90;;;;;;;18.48;67.94;99497.86;1775162;79;21372;-86
2022/06/23 05:00:43;;;;;;;7.30;3.70;;;;;;;18.65;67.50;99503.63;1780538;80;21047;-86
2022/06/23 05:03:26;;;;;;;5.12;4.00;;;;;;;18.74;66.80;99513.81;1781442;79;21023;-86
2022/06/23 05:06:03;;;;;;;6.10;4.03;;;;;;;18.75;66.14;99503.22;1775664;79;21059;-87
2022/06/23 05:08:31;;;;;;;8.53;4.10;;;;;;;18.78;66.44;99510.66;1774130;79;21012;-89
2022/06/23 05:11:15;;;;;;;7.10;4.17;;;;;;;18.86;66.36;99511.70;1744553;81;21987;-87
2022/06/23 05:13:49;;;;;;;5.93;3.60;;;;;;;18.95;65.85;99506.94;1738606;80;21057;-83
2022/06/23 05:16:32;;;;;;;7.90;3.80;;;;;;;19.01;65.31;99511.57;1752088;80;21126;-90
2022/06/23 05:19:00;;;;;;;6.70;4.00;;;;;;;19.11;65.12;99504.34;1753712;80;21143;-81
2022/06/23 05:21:30;;;;;;;6.17;3.90;;;;;;;19.33;64.78;99502.52;1750292;80;20984;-83
2022/06/23 05:24:07;;;;;;;6.97;3.90;;;;;;;19.58;64.23;99507.91;1779980;79;21102;-84
2022/06/23 05:26:42;;;;;;;5.03;3.93;;;;;;;19.78;63.34;99502.12;1775655;79;21055;-83
2022/06/23 05:29:23;;;;;;;6.97;3.87;;;;;;;20.00;62.72;99492.64;1774993;79;20979;-89
2022/06/23 05:31:53;;;;;;;5.62;3.58;;;;;;;20.11;61.76;99503.22;1781263;79;21824;-80
2022/06/23 05:34:26;;;;;;;6.03;3.98;;;;;;;20.19;61.35;99499.55;1778595;79;21054;-87
2022/06/23 05:37:17;;;;;;;6.93;4.10;;;;;;;20.21;60.90;99510.84;1779741;79;21228;-84
2022/06/23 05:40:04;;;;;;;6.43;3.87;;;;;;;20.19;60.52;99503.62;1781592;79;21000;-85
2022/06/23 05:42:32;;;;;;;4.93;3.47;;;;;;;20.19;60.46;99504.19;1782938;80;21054;-89
2022/06/23 05:45:02;;;;;;;4.70;3.60;;;;;;;20.24;60.76;99514.80;1781190;79;21106;-87
2022/06/23 05:47:33;;;;;;;4.47;3.67;;;;;;;20.30;60.86;99516.91;1779330;80;21138;-87
2022/06/23 05:50:07;;;;;;;9.57;4.30;;;;;;;20.32;60.01;99523.33;1768173;80;21223;-84
2022/06/23 05:52:42;;;;;;;6.37;4.00;;;;;;;20.26;60.42;99524.14;1748218;80;20996;-87
2022/06/23 05:55:32;;;;;;;7.03;4.30;;;;;;;20.32;60.53;99536.31;1781717;80;21144;-89
2022/06/23 05:58:24;;;;;;;6.13;3.80;;;;;;;20.39;59.71;99547.34;1784106;78;21050;-87
2022/06/23 06:01:12;;;;;;;8.33;4.70;;;;;;;20.32;59.69;99543.09;1756825;80;21070;-78
2022/06/23 06:03:45;;;;;;;4.80;4.23;;;;;;;20.28;59.84;99537.37;1783842;80;21096;-79
2022/06/23 06:06:13;;;;;;;5.37;4.13;;;;;;;20.26;59.78;99549.11;1755000;81;21063;-82
2022/06/23 06:11:38;;;;;;;6.87;4.27;;;;;;;20.14;60.68;99543.98;1783770;80;21015;-83
2022/06/23 06:14:04;;;;;;;6.60;4.60;;;;;;;20.21;60.76;99552.09;1783653;80;21051;-83
2022/06/23 06:16:32;;;;;;;4.67;3.80;;;;;;;20.28;60.23;99548.99;1783483;80;21083;-80
2022/06/23 06:18:58;;;;;;;6.03;4.27;;;;;;;20.37;60.05;99568.62;1783317;80;20995;-82
2022/06/23 06:21:25;;;;;;;6.70;4.30;;;;;;;20.39;59.80;99545.98;1783146;80;21105;-82
2022/06/23 06:24:12;;;;;;;7.83;4.40;;;;;;;20.31;59.55;99551.02;1783492;80;21439;-83
2022/06/23 06:26:42;;;;;;;7.90;4.00;;;;;;;20.24;60.01;99559.53;1778955;80;21431;-82
2022/06/23 06:29:22;;;;;;;5.63;4.00;;;;;;;20.22;59.94;99549.59;1783400;80;21134;-80
2022/06/23 06:32:00;;;;;;;5.50;4.03;;;;;;;20.24;60.00;99551.40;1783239;80;21099;-81
2022/06/23 06:34:34;;;;;;;7.73;4.40;;;;;;;20.33;60.07;99557.44;1783832;80;21532;-82
2022/06/23 06:37:03;;;;;;;6.03;3.87;;;;;;;20.38;60.04;99551.20;1784149;80;21047;-84
2022/06/23 06:39:36;;;;;;;5.27;4.17;;;;;;;20.41;59.85;99558.44;1784012;80;21554;-83
2022/06/23 06:42:08;;;;;;;6.17;3.87;;;;;;;20.40;60.08;99560.36;1783236;80;21234;-81
2022/06/23 06:44:39;;;;;;;8.20;3.77;;;;;;;20.35;59.94;99563.31;1782899;80;21146;-80
2022/06/23 06:47:07;;;;;;;5.77;4.07;;;;;;;20.28;60.04;99559.84;1783211;80;21530;-87
2022/06/23 06:49:36;;;;;;;5.10;3.50;;;;;;;20.23;60.25;99570.92;1760832;80;21620;-78
2022/06/23 06:52:03;;;;;;;5.43;3.70;;;;;;;20.17;60.46;99576.39;1753210;82;21003;-82
2022/06/23 06:54:53;;;;;;;6.37;3.77;;;;;;;20.13;60.47;99576.84;1726515;83;21248;-81
2022/06/23 06:57:43;;;;;;;6.73;3.83;;;;;;;20.13;60.64;99578.20;1726249;83;20976;-80
2022/06/23 07:00:28;;;;;;;7.13;3.60;;;;;;;20.21;60.91;99581.91;1726759;83;21059;-82
2022/06/23 07:03:00;;;;;;;6.43;3.43;;;;;;;20.27;60.37;99583.22;1727072;83;21042;-83
2022/06/23 07:05:56;;;;;;;5.30;3.67;;;;;;;20.34;60.61;99595.08;1726995;83;21075;-81
2022/06/23 07:08:38;;;;;;;5.20;3.70;;;;;;;20.42;60.11;99587.13;1725504;83;21191;-81
2022/06/23 07:11:54;;;;;;;6.75;3.45;;;;;;;20.45;59.77;99590.50;1725915;83;28272;-82
2022/06/23 07:14:32;;;;;;;5.80;3.17;;;;;;;20.47;60.11;99590.95;1726814;83;21498;-80
2022/06/23 07:17:40;;;;;;;4.77;3.50;;;;;;;20.56;60.04;99601.09;1725443;83;21518;-80
2022/06/23 07:20:24;;;;;;;7.03;3.73;;;;;;;20.56;59.81;99618.15;1744208;81;21617;-82
2022/06/23 07:23:01;;;;;;;5.10;3.50;;;;;;;20.52;60.02;99611.06;1755828;81;21252;-84
2022/06/23 07:25:33;;;;;;;5.10;3.67;;;;;;;20.48;60.10;99622.36;1778488;80;21067;-84
2022/06/23 07:28:05;;;;;;;6.27;3.40;;;;;;;20.41;60.02;99614.82;1773528;80;21051;-80
2022/06/23 07:30:37;;;;;;;6.27;3.87;;;;;;;20.34;60.33;99630.90;1775531;79;21047;-81
2022/06/23 07:33:14;;;;;;;5.33;3.63;;;;;;;20.31;60.10;99635.08;1753234;80;21107;-83
2022/06/23 07:35:59;;;;;;;4.30;3.23;;;;;;;20.31;60.25;99627.52;1752778;80;21262;-85
2022/06/23 07:38:38;;;;;;;4.47;3.30;;;;;;;20.42;60.54;99637.30;1755603;81;21114;-81
2022/06/23 07:41:12;;;;;;;4.90;3.17;;;;;;;20.57;59.93;99635.24;1755577;81;21172;-80
2022/06/23 07:44:05;;;;;;;5.90;3.33;;;;;;;20.74;59.38;99629.50;1750743;80;20980;-80
2022/06/23 07:46:32;;;;;;;4.93;3.33;;;;;;;20.96;59.00;99636.82;1754747;80;21094;-77
2022/06/23 07:48:58;;;;;;;4.07;3.30;;;;;;;21.12;58.22;99641.69;1755727;81;21244;-83
2022/06/23 07:51:25;;;;;;;4.30;3.43;;;;;;;21.17;58.04;99643.37;1755868;80;21066;-80
2022/06/23 07:53:53;;;;;;;4.53;3.10;;;;;;;21.12;57.58;99644.41;1758343;81;21145;-79
2022/06/23 07:56:24;;;;;;;8.10;3.73;;;;;;;20.98;57.60;99659.77;1756913;80;21118;-77
2022/06/23 07:59:06;;;;;;;6.53;3.40;;;;;;;20.84;58.15;99662.91;1753182;80;21165;-79
2022/06/23 08:01:49;;;;;;;5.87;3.10;;;;;;;20.76;58.76;99665.23;1753240;80;21829;-79
2022/06/23 08:04:46;;;;;;;7.43;3.50;;;;;;;20.73;59.09;99668.63;1753445;80;21493;-80
2022/06/23 08:07:13;;;;;;;7.70;3.70;;;;;;;20.74;59.01;99681.05;1752446;80;21668;-87
2022/06/23 08:09:49;;;;;;;6.10;3.80;;;;;;;20.72;58.97;99666.25;1779059;79;21091;-80
2022/06/23 08:18:51;;;;;;;4.73;3.53;;;;;;;20.89;58.42;99664.57;1780135;79;21098;-81
2022/06/23 08:21:29;;;;;;;4.77;3.33;;;;;;;21.00;57.90;99673.02;1777206;79;21073;-80
2022/06/23 08:24:08;;;;;;;7.10;3.47;;;;;;;21.15;57.61;99679.58;1782451;79;20995;-79
2022/06/23 08:26:38;;;;;;;4.17;3.20;;;;;;;21.33;57.25;99682.19;1779677;80;21106;-82
2022/06/23 08:29:09;;;;;;;7.27;3.50;;;;;;;21.61;56.78;99679.97;1782648;79;21907;-81
2022/06/23 08:31:36;;;;;;;4.77;3.27;;;;;;;21.88;56.21;99672.27;1755417;80;21067;-81
2022/06/23 08:34:03;;;;;;;4.53;3.10;;;;;;;22.11;55.12;99679.18;1782479;80;21050;-81
2022/06/23 08:36:41;;;;;;;4.50;3.37;;;;;;;22.25;54.70;99681.44;1783133;80;21055;-83
2022/06/23 08:39:46;;;;;;;5.97;3.53;;;;;;;22.31;54.30;99681.92;1783196;80;21008;-81
2022/06/23 08:42:21;;;;;;;4.93;3.00;;;;;;;22.35;54.32;99680.87;1782835;80;21617;-81
2022/06/23 08:45:01;;;;;;;3.80;3.10;;;;;;;22.36;53.89;99680.30;1782215;79;21091;-81
2022/06/23 08:47:39;;;;;;;5.27;3.57;;;;;;;22.34;54.46;99690.73;1781000;79;21150;-82
2022/06/23 08:50:26;;;;;;;5.00;3.00;;;;;;;22.29;54.21;99689.67;1779180;79;20984;-82
2022/06/23 08:53:31;;;;;;;4.63;3.30;;;;;;;22.22;54.36;99691.67;1779968;79;21293;-81
2022/06/23 08:56:21;;;;;;;5.13;3.20;;;;;;;22.10;54.88;99693.12;1775875;79;21146;-80
2022/06/23 08:59:19;;;;;;;6.00;3.43;;;;;;;22.05;54.79;99700.20;1776517;79;21000;-80
2022/06/23 09:01:58;;;;;;;5.37;3.30;;;;;;;22.05;54.91;99703.71;1779450;79;21564;-80
2022/06/23 09:04:48;;;;;;;4.57;2.90;;;;;;;22.10;55.20;99706.14;1767459;79;20984;-79
2022/06/23 09:07:43;;;;;;;4.77;2.90;;;;;;;22.16;55.04;99713.48;1777096;79;21502;-81
2022/06/23 09:10:34;;;;;;;5.07;2.80;;;;;;;22.17;54.45;99715.84;1765200;79;21261;-79
2022/06/23 09:13:35;;;;;;;3.97;2.53;;;;;;;22.16;53.42;99721.07;1777989;79;21031;-81
2022/06/23 09:16:19;;;;;;;5.40;2.83;;;;;;;22.09;52.56;99726.33;1752218;82;21530;-83
2022/06/23 09:19:03;;;;;;;4.87;3.17;;;;;;;21.97;52.65;99724.50;1780032;79;21426;-80
2022/06/23 09:21:58;;;;;;;7.67;2.90;;;;;;;21.88;52.88;99738.06;1770685;79;21023;-80
2022/06/23 09:24:58;;;;;;;8.27;3.10;;;;;;;21.79;53.17;99739.63;1756633;80;22189;-78
2022/06/23 09:27:36;;;;;;;5.80;3.20;;;;;;;21.72;53.61;99745.67;1754813;82;20992;-79
2022/06/23 09:30:42;;;;;;;4.53;2.70;;;;;;;21.61;53.61;99753.34;1745151;80;21007;-79
2022/06/23 09:33:56;;;;;;;3.50;2.60;;;;;;;21.52;53.94;99756.24;1698751;82;20952;-79
2022/06/23 09:37:03;;;;;;;4.83;2.90;;;;;;;21.48;54.21;99758.84;1752331;81;21141;-81
2022/06/23 09:40:00;;;;;;;5.37;3.10;;;;;;;21.45;54.49;99766.91;1752025;82;21816;-78
2022/06/23 09:43:12;;;;;;;5.87;3.10;;;;;;;21.37;54.15;99761.08;1725353;83;21475;-81
2022/06/23 09:46:13;;;;;;;5.53;2.90;;;;;;;21.31;54.80;99778.95;1752292;82;20963;-80
2022/06/23 09:49:05;;;;;;;7.60;3.27;;;;;;;21.27;56.02;99780.80;1755834;81;21170;-79
2022/06/23 09:52:12;;;;;;;6.30;2.87;;;;;;;21.13;57.34;99785.84;1755472;81;21454;-77
2022/06/23 09:54:50;;;;;;;6.23;3.00;;;;;;;21.04;58.93;99781.13;1755158;81;21150;-79
2022/06/23 09:57:57;;;;;;;5.40;3.30;;;;;;;20.88;60.11;99796.58;1783343;80;21038;-78
2022/06/23 10:00:51;;;;;;;3.93;3.03;;;;;;;20.75;61.42;99798.53;1737322;80;21058;-79
2022/06/23 10:03:32;;;;;;;5.13;3.30;;;;;;;20.67;62.61;99804.33;1783034;80;20948;-77
2022/06/23 10:06:34;;;;;;;5.25;3.35;;;;;;;20.62;63.79;99814.05;1782929;80;20944;-79
2022/06/23 10:09:44;;;;;;;6.47;3.33;;;;;;;20.59;64.59;99820.16;1776628;79;21070;-80
2022/06/23 10:12:45;;;;;;;6.73;3.47;;;;;;;20.65;64.69;99818.80;1777931;79;21522;-82
2022/06/23 10:15:35;;;;;;;3.50;2.87;;;;;;;20.68;65.27;99812.69;1783164;80;21566;-81
2022/06/23 10:18:24;;;;;;;4.43;3.30;;;;;;;20.62;65.64;99809.98;1781986;80;21741;-78
2022/06/23 10:21:07;;;;;;;7.37;3.67;;;;;;;20.59;66.16;99824.23;1782015;80;20952;-80
2022/06/23 10:23:58;;;;;;;4.87;3.40;;;;;;;20.49;66.41;99814.60;1780362;79;21154;-80
2022/06/23 10:26:46;;;;;;;5.15;2.95;;;;;;;20.48;66.74;99823.09;1776420;80;20965;-80
2022/06/23 10:29:36;;;;;;;5.30;3.40;;;;;;;20.63;66.98;99822.41;1752456;79;21130;-80
2022/06/23 10:32:20;;;;;;;4.50;3.40;;;;;;;20.76;66.74;99821.81;1772147;79;21130;-80
2022/06/23 10:35:13;;;;;;;6.57;3.40;;;;;;;20.92;66.34;99826.75;1752143;80;21042;-79
2022/06/23 10:38:08;;;;;;;5.30;3.70;;;;;;;21.00;65.49;99820.41;1748628;80;21569;-79
2022/06/23 10:41:25;;;;;;;5.33;3.50;;;;;;;21.03;65.12;99826.50;1719414;82;21094;-80
2022/06/23 10:44:24;;;;;;;6.70;3.47;;;;;;;21.00;64.44;99834.55;1749818;80;21043;-78
2022/06/23 10:47:08;;;;;;;4.63;3.07;;;;;;;20.78;64.04;99833.91;1751673;80;21034;-78
2022/06/23 10:49:58;;;;;;;4.53;3.40;;;;;;;20.64;64.75;99838.93;1755319;80;21106;-79
2022/06/23 10:52:46;;;;;;;4.73;3.50;;;;;;;20.56;65.28;99841.19;1756046;81;22137;-78
2022/06/23 10:55:34;;;;;;;4.47;3.13;;;;;;;20.51;65.04;99844.15;1756206;81;20988;-78
2022/06/23 10:58:06;;;;;;;5.13;2.80;;;;;;;20.51;65.26;99857.71;1755424;80;21133;-78
2022/06/23 11:00:44;;;;;;;4.97;3.30;;;;;;;20.51;65.07;99855.00;1753394;80;21588;-79
2022/06/23 11:03:41;;;;;;;4.80;3.17;;;;;;;20.52;65.03;99855.22;1750085;80;21311;-81
2022/06/23 11:06:31;;;;;;;4.73;3.03;;;;;;;20.52;64.83;99844.36;1753706;80;21044;-80
2022/06/23 11:09:09;;;;;;;5.37;3.10;;;;;;;20.52;64.74;99844.36;1755528;81;20996;-81
2022/06/23 11:11:52;;;;;;;3.73;3.00;;;;;;;20.58;64.70;99849.79;1750677;80;21026;-79
2022/06/23 11:15:04;;;;;;;4.53;3.37;;;;;;;20.62;64.18;99853.39;1752207;81;21062;-83
2022/06/23 11:17:53;;;;;;;5.55;3.37;;;;;;;20.68;64.13;99857.45;1755738;81;21530;-81
2022/06/23 11:20:56;;;;;;;4.77;2.73;;;;;;;20.78;63.78;99855.63;1744301;81;21555;-80
2022/06/23 11:24:01;;;;;;;4.30;3.07;;;;;;;20.88;63.44;99860.36;1756007;81;21042;-79
2022/06/23 11:27:04;;;;;;;5.93;3.23;;;;;;;20.95;63.14;99863.28;1753347;80;21070;-82
2022/06/23 11:29:59;;;;;;;5.37;3.10;;;;;;;21.01;62.91;99864.63;1755162;81;21043;-81
2022/06/23 11:32:49;;;;;;;5.10;3.17;;;;;;;21.12;62.59;99866.28;1755979;81;21016;-84
2022/06/23 11:35:48;;;;;;;7.50;3.00;;;;;;;21.21;62.34;99867.72;1755654;80;21612;-82
2022/06/23 11:38:42;;;;;;;4.87;2.80;;;;;;;21.28;61.09;99878.00;1755824;81;20988;-84
2022/06/23 11:41:39;;;;;;;5.73;3.03;;;;;;;21.33;61.35;99873.69;1755406;80;22488;-79
2022/06/23 11:44:47;;;;;;;5.53;3.00;;;;;;;21.48;60.93;99875.67;1758209;78;20972;-83
2022/06/23 11:47:55;;;;;;;5.47;2.83;;;;;;;21.60;60.63;99880.84;1729695;82;21011;-79
2022/06/23 11:50:46;;;;;;;4.70;3.10;;;;;;;21.74;59.60;99882.00;1751957;80;21461;-78
2022/06/23 11:53:35;;;;;;;5.43;2.93;;;;;;;21.88;57.83;99886.23;1732646;80;21199;-81
2022/06/23 11:56:23;;;;;;;3.70;2.60;;;;;;;21.95;56.76;99889.94;1760109;80;20933;-82
2022/06/23 11:59:16;;;;;;;4.80;2.80;;;;;;;22.04;55.79;99887.03;1744204;80;21021;-82
2022/06/23 12:01:43;;;;;;;4.83;2.40;;;;;;;22.11;54.69;99884.52;1783039;80;21025;-82
2022/06/23 12:04:27;;;;;;;4.70;2.80;;;;;;;22.21;53.29;99889.45;1783170;80;21212;-84
2022/06/23 12:07:15;;;;;;;4.57;2.50;;;;;;;22.35;53.28;99882.78;1780415;80;21537;-82
2022/06/23 12:10:20;;;;;;;3.73;2.50;;;;;;;22.52;53.09;99885.12;1754349;80;21290;-85
2022/06/23 12:12:49;;;;;;;4.50;2.60;;;;;;;22.71;51.75;99893.92;1725701;83;20952;-82
2022/06/23 12:15:21;;;;;;;5.40;2.60;;;;;;;22.84;51.02;99891.87;1725820;83;21103;-86
2022/06/23 12:17:58;;;;;;;4.15;2.55;;;;;;;22.94;51.24;99893.48;1738288;80;21129;-82
2022/06/23 12:20:31;;;;;;;2.63;2.10;;;;;;;23.02;49.91;99889.55;1751682;80;37645;-80
2022/06/23 12:23:38;;;;;;;4.07;2.30;;;;;;;23.09;49.15;99893.78;1751232;80;21068;-76
2022/06/23 12:26:26;;;;;;;3.83;2.00;;;;;;;23.04;48.69;99891.35;1752837;80;21101;-74
2022/06/23 12:29:23;;;;;;;4.90;2.30;;;;;;;22.94;48.62;99900.88;1757881;81;20920;-81
2022/06/23 12:32:10;;;;;;;3.47;2.10;;;;;;;22.85;48.01;99911.14;1754228;80;21231;-78
2022/06/23 12:34:56;;;;;;;5.83;2.30;;;;;;;22.76;47.80;99909.17;1752556;81;21550;-79
2022/06/23 12:37:44;;;;;;;3.70;2.30;;;;;;;22.64;48.35;99899.98;1778338;79;21154;-79
2022/06/23 12:40:25;;;;;;;3.13;2.20;;;;;;;22.61;48.80;99903.99;1777819;79;21507;-81
2022/06/23 12:43:03;;;;;;;3.25;2.10;;;;;;;22.56;48.82;99913.20;1779802;79;21067;-81
2022/06/23 12:45:50;;;;;;;4.27;2.33;;;;;;;22.55;49.02;99910.27;1762885;79;21114;-85
2022/06/23 12:48:41;;;;;;;3.50;2.20;;;;;;;22.53;48.98;99905.73;1777229;79;21031;-79
2022/06/23 12:51:47;;;;;;;10.70;2.80;;;;;;;22.50;48.94;99911.89;1774305;79;21065;-84
2022/06/23 12:54:36;;;;;;;4.97;2.30;;;;;;;22.47;49.33;99913.95;1753365;82;21042;-82
2022/06/23 12:57:36;;;;;;;5.07;2.53;;;;;;;22.44;49.35;99920.09;1766525;79;21043;-80
2022/06/23 13:00:12;;;;;;;5.30;2.50;;;;;;;22.39;49.52;99936.12;1750140;80;21071;-82
2022/06/23 13:02:58;;;;;;;3.93;2.40;;;;;;;22.36;49.48;99921.86;1778876;80;21018;-84
2022/06/23 13:05:32;;;;;;;5.90;2.50;;;;;;;22.35;49.83;99924.37;1775982;79;20987;-83